Aviation Digital Data Service (ADDS)

Output produced by METARs form (1332 UTC 17 September 2019)
found at http://www.aviationweather.gov/metar/data/
 
METAR text: KILG 171251Z 05012KT 10SM FEW100 22/12 A3013 RMK AO2 SLP202 T02220122
Conditions at: KILG (WILMINGTON , DE, US) observed 1251 UTC 17 September 2019
Temperature: 22.2°C (72°F)
Dewpoint: 12.2°C (54°F) [RH = 53%]
Pressure (altimeter): 30.13 inches Hg (1020.4 mb)
[Sea-level pressure: 1020.2 mb]
Winds: from the NE (50 degrees) at 14 MPH (12 knots; 6.2 m/s)
Visibility: 10 or more miles (16+ km)
Ceiling: at least 12,000 feet AGL
Clouds: few clouds at 10000 feet AGL
Weather: no significant weather observed at this time

METAR text: KILG 171151Z 07011KT 10SM SCT065 22/13 A3011 RMK AO2 SLP196 T02170128 10217 20206 53022
Conditions at: KILG (WILMINGTON , DE, US) observed 1151 UTC 17 September 2019
Temperature: 21.7°C (71°F)
Dewpoint: 12.8°C (55°F) [RH = 57%]
Pressure (altimeter): 30.11 inches Hg (1019.7 mb)
[Sea-level pressure: 1019.6 mb]
Winds: from the ENE (70 degrees) at 13 MPH (11 knots; 5.7 m/s)
Visibility: 10 or more miles (16+ km)
Ceiling: at least 12,000 feet AGL
Clouds: scattered clouds at 6500 feet AGL
Weather: no significant weather observed at this time

METAR text: KILG 171051Z 06011KT 10SM FEW031 BKN065 OVC095 21/14 A3009 RMK AO2 SLP188 T02110144
Conditions at: KILG (WILMINGTON , DE, US) observed 1051 UTC 17 September 2019
Temperature: 21.1°C (70°F)
Dewpoint: 14.4°C (58°F) [RH = 66%]
Pressure (altimeter): 30.09 inches Hg (1019.0 mb)
[Sea-level pressure: 1018.8 mb]
Winds: from the ENE (60 degrees) at 13 MPH (11 knots; 5.7 m/s)
Visibility: 10 or more miles (16+ km)
Ceiling: 6500 feet AGL
Clouds: few clouds at 3100 feet AGL
broken clouds at 6500 feet AGL
overcast cloud deck at 9500 feet AGL
Weather: no significant weather observed at this time

METAR text: KILG 170951Z AUTO 06010KT 10SM OVC065 22/18 A3007 RMK AO2 SLP180 T02170183
Conditions at: KILG (WILMINGTON , DE, US) observed 0951 UTC 17 September 2019
Temperature: 21.7°C (71°F)
Dewpoint: 18.3°C (65°F) [RH = 81%]
Pressure (altimeter): 30.07 inches Hg (1018.4 mb)
[Sea-level pressure: 1018.0 mb]
Winds: from the ENE (60 degrees) at 12 MPH (10 knots; 5.1 m/s)
Visibility: 10 or more miles (16+ km)
Ceiling: 6500 feet AGL
Clouds: overcast cloud deck at 6500 feet AGL
Weather: automated observation with no human augmentation;
there may or may not be significant weather present at this time

METAR text: KILG 170851Z AUTO 04007KT 10SM SCT050 21/18 A3005 RMK AO2 SLP174 T02060178 51001
Conditions at: KILG (WILMINGTON , DE, US) observed 0851 UTC 17 September 2019
Temperature: 20.6°C (69°F)
Dewpoint: 17.8°C (64°F) [RH = 84%]
Pressure (altimeter): 30.05 inches Hg (1017.7 mb)
[Sea-level pressure: 1017.4 mb]
Winds: from the NE (40 degrees) at 8 MPH (7 knots; 3.6 m/s)
Visibility: 10 or more miles (16+ km)
Ceiling: at least 12,000 feet AGL
Clouds: scattered clouds at 5000 feet AGL
Weather: automated observation with no human augmentation;
there may or may not be significant weather present at this time

METAR text: KILG 170751Z AUTO 01004KT 10SM OVC050 21/18 A3005 RMK AO2 SLP173 T02110183
Conditions at: KILG (WILMINGTON , DE, US) observed 0751 UTC 17 September 2019
Temperature: 21.1°C (70°F)
Dewpoint: 18.3°C (65°F) [RH = 84%]
Pressure (altimeter): 30.05 inches Hg (1017.7 mb)
[Sea-level pressure: 1017.3 mb]
Winds: from the N (10 degrees) at 5 MPH (4 knots; 2.1 m/s)
Visibility: 10 or more miles (16+ km)
Ceiling: 5000 feet AGL
Clouds: overcast cloud deck at 5000 feet AGL
Weather: automated observation with no human augmentation;
there may or may not be significant weather present at this time

METAR text: KILG 170651Z AUTO 05005KT 10SM FEW050 21/19 A3005 RMK AO2 SLP173 T02110189
Conditions at: KILG (WILMINGTON , DE, US) observed 0651 UTC 17 September 2019
Temperature: 21.1°C (70°F)
Dewpoint: 18.9°C (66°F) [RH = 87%]
Pressure (altimeter): 30.05 inches Hg (1017.7 mb)
[Sea-level pressure: 1017.3 mb]
Winds: from the NE (50 degrees) at 6 MPH (5 knots; 2.6 m/s)
Visibility: 10 or more miles (16+ km)
Ceiling: at least 12,000 feet AGL
Clouds: few clouds at 5000 feet AGL
Weather: automated observation with no human augmentation;
there may or may not be significant weather present at this time

METAR text: KILG 170551Z AUTO 05006KT 10SM BKN050 21/19 A3004 RMK AO2 SLP172 T02110194 10256 20211 51006
Conditions at: KILG (WILMINGTON , DE, US) observed 0551 UTC 17 September 2019
Temperature: 21.1°C (70°F)
Dewpoint: 19.4°C (67°F) [RH = 90%]
Pressure (altimeter): 30.04 inches Hg (1017.4 mb)
[Sea-level pressure: 1017.2 mb]
Winds: from the NE (50 degrees) at 7 MPH (6 knots; 3.1 m/s)
Visibility: 10 or more miles (16+ km)
Ceiling: 5000 feet AGL
Clouds: broken clouds at 5000 feet AGL
Weather: automated observation with no human augmentation;
there may or may not be significant weather present at this time

METAR text: KILG 170451Z AUTO 06007KT 10SM BKN120 22/19 A3004 RMK AO2 SLP171 T02170189 403000167
Conditions at: KILG (WILMINGTON , DE, US) observed 0451 UTC 17 September 2019
Temperature: 21.7°C (71°F)
Dewpoint: 18.9°C (66°F) [RH = 84%]
Pressure (altimeter): 30.04 inches Hg (1017.4 mb)
[Sea-level pressure: 1017.1 mb]
Winds: from the ENE (60 degrees) at 8 MPH (7 knots; 3.6 m/s)
Visibility: 10 or more miles (16+ km)
Ceiling: 12000 feet AGL
Clouds: broken clouds at 12000 feet AGL
Weather: automated observation with no human augmentation;
there may or may not be significant weather present at this time

METAR text: KILG 170351Z AUTO 07007KT 10SM FEW080 OVC120 23/18 A3004 RMK AO2 SLP170 T02280183
Conditions at: KILG (WILMINGTON , DE, US) observed 0351 UTC 17 September 2019
Temperature: 22.8°C (73°F)
Dewpoint: 18.3°C (65°F) [RH = 76%]
Pressure (altimeter): 30.04 inches Hg (1017.4 mb)
[Sea-level pressure: 1017.0 mb]
Winds: from the ENE (70 degrees) at 8 MPH (7 knots; 3.6 m/s)
Visibility: 10 or more miles (16+ km)
Ceiling: 12000 feet AGL
Clouds: few clouds at 8000 feet AGL
overcast cloud deck at 12000 feet AGL
Weather: automated observation with no human augmentation;
there may or may not be significant weather present at this time

METAR text: KILG 170251Z AUTO 09003KT 10SM BKN110 23/19 A3003 RMK AO2 SLP166 T02330189 53009
Conditions at: KILG (WILMINGTON , DE, US) observed 0251 UTC 17 September 2019
Temperature: 23.3°C (74°F)
Dewpoint: 18.9°C (66°F) [RH = 76%]
Pressure (altimeter): 30.03 inches Hg (1017.0 mb)
[Sea-level pressure: 1016.6 mb]
Winds: from the E (90 degrees) at 3 MPH (3 knots; 1.5 m/s)
Visibility: 10 or more miles (16+ km)
Ceiling: 11000 feet AGL
Clouds: broken clouds at 11000 feet AGL
Weather: automated observation with no human augmentation;
there may or may not be significant weather present at this time

METAR text: KILG 170151Z 17003KT 10SM FEW070 OVC090 24/20 A3001 RMK AO2 SLP161 T02390200
Conditions at: KILG (WILMINGTON , DE, US) observed 0151 UTC 17 September 2019
Temperature: 23.9°C (75°F)
Dewpoint: 20.0°C (68°F) [RH = 79%]
Pressure (altimeter): 30.01 inches Hg (1016.3 mb)
[Sea-level pressure: 1016.1 mb]
Winds: from the S (170 degrees) at 3 MPH (3 knots; 1.5 m/s)
Visibility: 10 or more miles (16+ km)
Ceiling: 9000 feet AGL
Clouds: few clouds at 7000 feet AGL
overcast cloud deck at 9000 feet AGL
Weather: no significant weather observed at this time

METAR text: KILG 170051Z 15004KT 10SM OVC065 24/19 A3001 RMK AO2 SLP159 T02440194
Conditions at: KILG (WILMINGTON , DE, US) observed 0051 UTC 17 September 2019
Temperature: 24.4°C (76°F)
Dewpoint: 19.4°C (67°F) [RH = 74%]
Pressure (altimeter): 30.01 inches Hg (1016.3 mb)
[Sea-level pressure: 1015.9 mb]
Winds: from the SSE (150 degrees) at 5 MPH (4 knots; 2.1 m/s)
Visibility: 10 or more miles (16+ km)
Ceiling: 6500 feet AGL
Clouds: overcast cloud deck at 6500 feet AGL
Weather: no significant weather observed at this time

METAR text: KILG 162351Z 17004KT 10SM BKN070 BKN080 OVC120 26/15 A3000 RMK AO2 SLP158 T02560150 10300 20256 53007
Conditions at: KILG (WILMINGTON , DE, US) observed 2351 UTC 16 September 2019
Temperature: 25.6°C (78°F)
Dewpoint: 15.0°C (59°F) [RH = 52%]
Pressure (altimeter): 30.00 inches Hg (1016.0 mb)
[Sea-level pressure: 1015.8 mb]
Winds: from the S (170 degrees) at 5 MPH (4 knots; 2.1 m/s)
Visibility: 10 or more miles (16+ km)
Ceiling: 7000 feet AGL
Clouds: broken clouds at 7000 feet AGL
broken clouds at 8000 feet AGL
overcast cloud deck at 12000 feet AGL
Weather: no significant weather observed at this time

METAR text: KILG 162251Z 00000KT 10SM OVC065 27/17 A2999 RMK AO2 SLP156 T02670172
Conditions at: KILG (WILMINGTON , DE, US) observed 2251 UTC 16 September 2019
Temperature: 26.7°C (80°F)
Dewpoint: 17.2°C (63°F) [RH = 56%]
Pressure (altimeter): 29.99 inches Hg (1015.7 mb)
[Sea-level pressure: 1015.6 mb]
Winds: calm
Visibility: 10 or more miles (16+ km)
Ceiling: 6500 feet AGL
Clouds: overcast cloud deck at 6500 feet AGL
Weather: no significant weather observed at this time

METAR text: KILG 162151Z 18007KT 10SM BKN065 OVC120 27/17 A2998 RMK AO2 SLP150 T02720172
Conditions at: KILG (WILMINGTON , DE, US) observed 2151 UTC 16 September 2019
Temperature: 27.2°C (81°F)
Dewpoint: 17.2°C (63°F) [RH = 54%]
Pressure (altimeter): 29.98 inches Hg (1015.3 mb)
[Sea-level pressure: 1015.0 mb]
Winds: from the S (180 degrees) at 8 MPH (7 knots; 3.6 m/s)
Visibility: 10 or more miles (16+ km)
Ceiling: 6500 feet AGL
Clouds: broken clouds at 6500 feet AGL
overcast cloud deck at 12000 feet AGL
Weather: no significant weather observed at this time

METAR text: KILG 162051Z 17007KT 10SM BKN120 28/17 A2998 RMK AO2 SLP151 T02780172 56015
Conditions at: KILG (WILMINGTON , DE, US) observed 2051 UTC 16 September 2019
Temperature: 27.8°C (82°F)
Dewpoint: 17.2°C (63°F) [RH = 53%]
Pressure (altimeter): 29.98 inches Hg (1015.3 mb)
[Sea-level pressure: 1015.1 mb]
Winds: from the S (170 degrees) at 8 MPH (7 knots; 3.6 m/s)
Visibility: 10 or more miles (16+ km)
Ceiling: 12000 feet AGL
Clouds: broken clouds at 12000 feet AGL
Weather: no significant weather observed at this time

METAR text: KILG 161951Z 14006KT 10SM OVC070 29/17 A2999 RMK AO2 SLP153 T02940167
Conditions at: KILG (WILMINGTON , DE, US) observed 1951 UTC 16 September 2019
Temperature: 29.4°C (85°F)
Dewpoint: 16.7°C (62°F) [RH = 46%]
Pressure (altimeter): 29.99 inches Hg (1015.7 mb)
[Sea-level pressure: 1015.3 mb]
Winds: from the SE (140 degrees) at 7 MPH (6 knots; 3.1 m/s)
Visibility: 10 or more miles (16+ km)
Ceiling: 7000 feet AGL
Clouds: overcast cloud deck at 7000 feet AGL
Weather: no significant weather observed at this time

METAR text: KILG 161851Z 17007KT 10SM BKN075 OVC095 28/16 A3000 RMK AO2 SLP160 T02830161
Conditions at: KILG (WILMINGTON , DE, US) observed 1851 UTC 16 September 2019
Temperature: 28.3°C (83°F)
Dewpoint: 16.1°C (61°F) [RH = 48%]
Pressure (altimeter): 30.00 inches Hg (1016.0 mb)
[Sea-level pressure: 1016.0 mb]
Winds: from the S (170 degrees) at 8 MPH (7 knots; 3.6 m/s)
Visibility: 10 or more miles (16+ km)
Ceiling: 7500 feet AGL
Clouds: broken clouds at 7500 feet AGL
overcast cloud deck at 9500 feet AGL
Weather: no significant weather observed at this time

METAR text: KILG 161751Z 17005KT 10SM FEW070 OVC110 29/16 A3002 RMK AO2 SLP165 T02890161 10289 20200 58017
Conditions at: KILG (WILMINGTON , DE, US) observed 1751 UTC 16 September 2019
Temperature: 28.9°C (84°F)
Dewpoint: 16.1°C (61°F) [RH = 46%]
Pressure (altimeter): 30.02 inches Hg (1016.7 mb)
[Sea-level pressure: 1016.5 mb]
Winds: from the S (170 degrees) at 6 MPH (5 knots; 2.6 m/s)
Visibility: 10 or more miles (16+ km)
Ceiling: 11000 feet AGL
Clouds: few clouds at 7000 feet AGL
overcast cloud deck at 11000 feet AGL
Weather: no significant weather observed at this time

METAR text: KILG 161651Z 17007KT 10SM BKN075 OVC100 28/17 A3004 RMK AO2 SLP172 T02780167
Conditions at: KILG (WILMINGTON , DE, US) observed 1651 UTC 16 September 2019
Temperature: 27.8°C (82°F)
Dewpoint: 16.7°C (62°F) [RH = 51%]
Pressure (altimeter): 30.04 inches Hg (1017.4 mb)
[Sea-level pressure: 1017.2 mb]
Winds: from the S (170 degrees) at 8 MPH (7 knots; 3.6 m/s)
Visibility: 10 or more miles (16+ km)
Ceiling: 7500 feet AGL
Clouds: broken clouds at 7500 feet AGL
overcast cloud deck at 10000 feet AGL
Weather: no significant weather observed at this time

METAR text: KILG 161551Z VRB03KT 10SM BKN090 OVC120 28/15 A3006 RMK AO2 SLP177 T02830150
Conditions at: KILG (WILMINGTON , DE, US) observed 1551 UTC 16 September 2019
Temperature: 28.3°C (83°F)
Dewpoint: 15.0°C (59°F) [RH = 44%]
Pressure (altimeter): 30.06 inches Hg (1018.0 mb)
[Sea-level pressure: 1017.7 mb]
Winds: variable direction winds at 3 MPH (3 knots; 1.5 m/s)
Visibility: 10 or more miles (16+ km)
Ceiling: 9000 feet AGL
Clouds: broken clouds at 9000 feet AGL
overcast cloud deck at 12000 feet AGL
Weather: no significant weather observed at this time

METAR text: KILG 161451Z 00000KT 10SM SCT100 28/17 A3007 RMK AO2 SLP182 T02780167 58004
Conditions at: KILG (WILMINGTON , DE, US) observed 1451 UTC 16 September 2019
Temperature: 27.8°C (82°F)
Dewpoint: 16.7°C (62°F) [RH = 51%]
Pressure (altimeter): 30.07 inches Hg (1018.4 mb)
[Sea-level pressure: 1018.2 mb]
Winds: calm
Visibility: 10 or more miles (16+ km)
Ceiling: at least 12,000 feet AGL
Clouds: scattered clouds at 10000 feet AGL
Weather: no significant weather observed at this time

METAR text: KILG 161351Z 00000KT 10SM CLR 27/15 A3008 RMK AO2 SLP184 T02670150
Conditions at: KILG (WILMINGTON , DE, US) observed 1351 UTC 16 September 2019
Temperature: 26.7°C (80°F)
Dewpoint: 15.0°C (59°F) [RH = 49%]
Pressure (altimeter): 30.08 inches Hg (1018.7 mb)
[Sea-level pressure: 1018.4 mb]
Winds: calm
Visibility: 10 or more miles (16+ km)
Ceiling: at least 12,000 feet AGL
Clouds: sky clear below 12,000 feet AGL
Weather: no significant weather observed at this time

METAR text: KILG 161251Z 04003KT 10SM CLR 24/16 A3009 RMK AO2 SLP188 T02390161
Conditions at: KILG (WILMINGTON , DE, US) observed 1251 UTC 16 September 2019
Temperature: 23.9°C (75°F)
Dewpoint: 16.1°C (61°F) [RH = 62%]
Pressure (altimeter): 30.09 inches Hg (1019.0 mb)
[Sea-level pressure: 1018.8 mb]
Winds: from the NE (40 degrees) at 3 MPH (3 knots; 1.5 m/s)
Visibility: 10 or more miles (16+ km)
Ceiling: at least 12,000 feet AGL
Clouds: sky clear below 12,000 feet AGL
Weather: no significant weather observed at this time

METAR text: KILG 161151Z 00000KT 10SM FEW100 20/17 A3008 RMK AO2 SLP187 T02000167 10200 20167 53003
Conditions at: KILG (WILMINGTON , DE, US) observed 1151 UTC 16 September 2019
Temperature: 20.0°C (68°F)
Dewpoint: 16.7°C (62°F) [RH = 81%]
Pressure (altimeter): 30.08 inches Hg (1018.7 mb)
[Sea-level pressure: 1018.7 mb]
Winds: calm
Visibility: 10 or more miles (16+ km)
Ceiling: at least 12,000 feet AGL
Clouds: few clouds at 10000 feet AGL
Weather: no significant weather observed at this time

METAR text: KILG 161051Z 34003KT 10SM OVC110 18/17 A3008 RMK AO2 SLP185 T01830167 $
Conditions at: KILG (WILMINGTON , DE, US) observed 1051 UTC 16 September 2019
Temperature: 18.3°C (65°F)
Dewpoint: 16.7°C (62°F) [RH = 90%]
Pressure (altimeter): 30.08 inches Hg (1018.7 mb)
[Sea-level pressure: 1018.5 mb]
Winds: from the NNW (340 degrees) at 3 MPH (3 knots; 1.5 m/s)
Visibility: 10 or more miles (16+ km)
Ceiling: 11000 feet AGL
Clouds: overcast cloud deck at 11000 feet AGL
Weather:
SOME DATA ABOVE MAY BE INACCURATE!!!
"$" is an indication the sensor requires maintenance

METAR text: KILG 161027Z 33004KT 10SM SCT110 17/16 A3008 RMK AO2 T01720156 $
Conditions at: KILG (WILMINGTON , DE, US) observed 1027 UTC 16 September 2019
Temperature: 17.2°C (63°F)
Dewpoint: 15.6°C (60°F) [RH = 90%]
Pressure (altimeter): 30.08 inches Hg (1018.7 mb)
Winds: from the NNW (330 degrees) at 5 MPH (4 knots; 2.1 m/s)
Visibility: 10 or more miles (16+ km)
Ceiling: at least 12,000 feet AGL
Clouds: scattered clouds at 11000 feet AGL
Weather:
SOME DATA ABOVE MAY BE INACCURATE!!!
"$" is an indication the sensor requires maintenance

METAR text: KILG 160951Z AUTO 34003KT 10SM OVC110 18/16 A3007 RMK AO2 SLP183 T01830161 $
Conditions at: KILG (WILMINGTON , DE, US) observed 0951 UTC 16 September 2019
Temperature: 18.3°C (65°F)
Dewpoint: 16.1°C (61°F) [RH = 87%]
Pressure (altimeter): 30.07 inches Hg (1018.4 mb)
[Sea-level pressure: 1018.3 mb]
Winds: from the NNW (340 degrees) at 3 MPH (3 knots; 1.5 m/s)
Visibility: 10 or more miles (16+ km)
Ceiling: 11000 feet AGL
Clouds: overcast cloud deck at 11000 feet AGL
Weather:
SOME DATA ABOVE MAY BE INACCURATE!!!
"$" is an indication the sensor requires maintenance

METAR text: KILG 160851Z AUTO 33004KT 10SM OVC110 18/16 A3007 RMK AO2 SLP183 T01780161 56006 $
Conditions at: KILG (WILMINGTON , DE, US) observed 0851 UTC 16 September 2019
Temperature: 17.8°C (64°F)
Dewpoint: 16.1°C (61°F) [RH = 90%]
Pressure (altimeter): 30.07 inches Hg (1018.4 mb)
[Sea-level pressure: 1018.3 mb]
Winds: from the NNW (330 degrees) at 5 MPH (4 knots; 2.1 m/s)
Visibility: 10 or more miles (16+ km)
Ceiling: 11000 feet AGL
Clouds: overcast cloud deck at 11000 feet AGL
Weather:
SOME DATA ABOVE MAY BE INACCURATE!!!
"$" is an indication the sensor requires maintenance

METAR text: KILG 160751Z AUTO 00000KT 10SM CLR 17/16 A3008 RMK AO2 SLP184 T01720156 $
Conditions at: KILG (WILMINGTON , DE, US) observed 0751 UTC 16 September 2019
Temperature: 17.2°C (63°F)
Dewpoint: 15.6°C (60°F) [RH = 90%]
Pressure (altimeter): 30.08 inches Hg (1018.7 mb)
[Sea-level pressure: 1018.4 mb]
Winds: calm
Visibility: 10 or more miles (16+ km)
Ceiling: at least 12,000 feet AGL
Clouds: sky clear below 12,000 feet AGL
Weather:
SOME DATA ABOVE MAY BE INACCURATE!!!
"$" is an indication the sensor requires maintenance

METAR text: KILG 160651Z AUTO 00000KT 10SM CLR 18/16 A3008 RMK AO2 SLP184 T01780156 $
Conditions at: KILG (WILMINGTON , DE, US) observed 0651 UTC 16 September 2019
Temperature: 17.8°C (64°F)
Dewpoint: 15.6°C (60°F) [RH = 87%]
Pressure (altimeter): 30.08 inches Hg (1018.7 mb)
[Sea-level pressure: 1018.4 mb]
Winds: calm
Visibility: 10 or more miles (16+ km)
Ceiling: at least 12,000 feet AGL
Clouds: sky clear below 12,000 feet AGL
Weather:
SOME DATA ABOVE MAY BE INACCURATE!!!
"$" is an indication the sensor requires maintenance

METAR text: KILG 160551Z AUTO 00000KT 10SM CLR 18/16 A3009 RMK AO2 SLP189 T01830156 10239 20183 58002 $
Conditions at: KILG (WILMINGTON , DE, US) observed 0551 UTC 16 September 2019
Temperature: 18.3°C (65°F)
Dewpoint: 15.6°C (60°F) [RH = 84%]
Pressure (altimeter): 30.09 inches Hg (1019.0 mb)
[Sea-level pressure: 1018.9 mb]
Winds: calm
Visibility: 10 or more miles (16+ km)
Ceiling: at least 12,000 feet AGL
Clouds: sky clear below 12,000 feet AGL
Weather:
SOME DATA ABOVE MAY BE INACCURATE!!!
"$" is an indication the sensor requires maintenance

METAR text: KILG 160451Z AUTO 00000KT 10SM SCT110 19/16 A3009 RMK AO2 SLP189 T01940156 403060183 $
Conditions at: KILG (WILMINGTON , DE, US) observed 0451 UTC 16 September 2019
Temperature: 19.4°C (67°F)
Dewpoint: 15.6°C (60°F) [RH = 79%]
Pressure (altimeter): 30.09 inches Hg (1019.0 mb)
[Sea-level pressure: 1018.9 mb]
Winds: calm
Visibility: 10 or more miles (16+ km)
Ceiling: at least 12,000 feet AGL
Clouds: scattered clouds at 11000 feet AGL
Weather:
SOME DATA ABOVE MAY BE INACCURATE!!!
"$" is an indication the sensor requires maintenance

METAR text: KILG 160351Z AUTO 00000KT 10SM CLR 19/16 A3010 RMK AO2 SLP192 T01890156 $
Conditions at: KILG (WILMINGTON , DE, US) observed 0351 UTC 16 September 2019
Temperature: 18.9°C (66°F)
Dewpoint: 15.6°C (60°F) [RH = 81%]
Pressure (altimeter): 30.10 inches Hg (1019.4 mb)
[Sea-level pressure: 1019.2 mb]
Winds: calm
Visibility: 10 or more miles (16+ km)
Ceiling: at least 12,000 feet AGL
Clouds: sky clear below 12,000 feet AGL
Weather:
SOME DATA ABOVE MAY BE INACCURATE!!!
"$" is an indication the sensor requires maintenance

METAR text: KILG 160251Z AUTO 33004KT 10SM CLR 19/15 A3010 RMK AO2 SLP191 T01940150 51001 $
Conditions at: KILG (WILMINGTON , DE, US) observed 0251 UTC 16 September 2019
Temperature: 19.4°C (67°F)
Dewpoint: 15.0°C (59°F) [RH = 76%]
Pressure (altimeter): 30.10 inches Hg (1019.4 mb)
[Sea-level pressure: 1019.1 mb]
Winds: from the NNW (330 degrees) at 5 MPH (4 knots; 2.1 m/s)
Visibility: 10 or more miles (16+ km)
Ceiling: at least 12,000 feet AGL
Clouds: sky clear below 12,000 feet AGL
Weather:
SOME DATA ABOVE MAY BE INACCURATE!!!
"$" is an indication the sensor requires maintenance

METAR text: KILG 160151Z AUTO 31004KT 10SM CLR 20/15 A3010 RMK AO2 SLP191 T02000150 $
Conditions at: KILG (WILMINGTON , DE, US) observed 0151 UTC 16 September 2019
Temperature: 20.0°C (68°F)
Dewpoint: 15.0°C (59°F) [RH = 73%]
Pressure (altimeter): 30.10 inches Hg (1019.4 mb)
[Sea-level pressure: 1019.1 mb]
Winds: from the NW (310 degrees) at 5 MPH (4 knots; 2.1 m/s)
Visibility: 10 or more miles (16+ km)
Ceiling: at least 12,000 feet AGL
Clouds: sky clear below 12,000 feet AGL
Weather:
SOME DATA ABOVE MAY BE INACCURATE!!!
"$" is an indication the sensor requires maintenance

Forecast for: KILG (WILMINGTON , DE, US)
Text: KILG 171134Z 1712/1812 06008KT P6SM BKN060
Forecast period: 1200 to 1900 UTC 17 September 2019
Forecast type: FROM: standard forecast or significant change
Winds: from the ENE (60 degrees) at 9 MPH (8 knots; 4.1 m/s)
Visibility: 6 or more miles 10+ km)
Ceiling: 6000 feet AGL
Clouds: broken clouds at 6000 feet AGL
Weather: no significant weather forecast for this period
Text: FM171900 04006KT P6SM FEW250
Forecast period: 1900 to 2300 UTC 17 September 2019
Forecast type: FROM: standard forecast or significant change
Winds: from the NE (40 degrees) at 7 MPH (6 knots; 3.1 m/s)
Visibility: 6 or more miles 10+ km)
Ceiling: at least 12,000 feet AGL
Clouds: few clouds at 25000 feet AGL
Weather: no significant weather forecast for this period
Text: FM172300 07004KT P6SM SKC
Forecast period: 2300 UTC 17 September 2019 to 1200 UTC 18 September 2019
Forecast type: FROM: standard forecast or significant change
Winds: from the ENE (70 degrees) at 5 MPH (4 knots; 2.1 m/s)
Visibility: 6 or more miles 10+ km)
Clouds: clear skies
Weather: no significant weather forecast for this period